createdAt,value
2018-04-01T00:01:09.272Z,6.23
2018-04-01T00:03:37.088Z,6.87
2018-04-01T00:06:04.883Z,8.47
2018-04-01T00:08:32.696Z,6.23
2018-04-01T00:11:00.483Z,7.52
2018-04-01T00:13:28.305Z,6.65
2018-04-01T00:15:56.124Z,9.08
2018-04-01T00:18:23.944Z,6.97
2018-04-01T00:20:51.742Z,6.40
2018-04-01T00:23:19.560Z,6.52
2018-04-01T00:25:47.361Z,5.73
2018-04-01T00:28:15.189Z,5.42
2018-04-01T00:30:42.980Z,6.37
2018-04-01T00:33:10.793Z,18.00
2018-04-01T00:35:38.618Z,22.28
2018-04-01T00:38:06.411Z,7.27
2018-04-01T00:40:34.231Z,7.92
2018-04-01T00:43:02.022Z,6.85
2018-04-01T00:45:29.076Z,6.10
2018-04-01T00:47:56.886Z,6.22
2018-04-01T00:50:24.708Z,45.82
2018-04-01T00:52:52.504Z,48.75
2018-04-01T00:55:20.337Z,90.42
2018-04-01T00:57:48.139Z,24.87
2018-04-01T01:00:15.966Z,14.08
2018-04-01T01:02:43.764Z,10.10
2018-04-01T01:05:11.580Z,8.45
2018-04-01T01:07:39.408Z,7.50
2018-04-01T01:10:07.229Z,8.67
2018-04-01T01:12:35.034Z,8.90
2018-04-01T01:15:02.857Z,8.75
2018-04-01T01:17:30.663Z,9.42
2018-04-01T01:19:58.494Z,7.47
2018-04-01T01:22:26.292Z,7.60
2018-04-01T01:24:54.107Z,9.58
2018-04-01T01:27:21.908Z,7.95
2018-04-01T01:29:49.744Z,8.10
2018-04-01T01:32:17.544Z,8.63
2018-04-01T01:34:45.360Z,7.90
2018-04-01T01:37:13.158Z,7.77
2018-04-01T01:39:40.976Z,7.88
2018-04-01T01:42:08.784Z,7.18
2018-04-01T01:44:36.604Z,7.98
2018-04-01T01:47:04.405Z,7.43
2018-04-01T01:49:32.228Z,8.00
2018-04-01T01:52:00.025Z,8.20
2018-04-01T01:54:27.854Z,7.62
2018-04-01T01:56:55.656Z,7.37
2018-04-01T01:59:23.481Z,7.38
2018-04-01T02:01:51.281Z,7.08
2018-04-01T02:04:19.100Z,8.00
2018-04-01T02:06:46.896Z,7.57
2018-04-01T02:09:14.708Z,6.78
2018-04-01T02:11:42.497Z,8.78
2018-04-01T02:14:10.301Z,8.10
2018-04-01T02:16:38.132Z,8.47
2018-04-01T02:19:05.929Z,8.93
2018-04-01T02:21:33.757Z,9.07
2018-04-01T02:24:01.564Z,9.07
2018-04-01T02:26:29.386Z,8.87
2018-04-01T02:28:57.194Z,7.47
2018-04-01T02:31:25.083Z,7.77
2018-04-01T02:33:52.826Z,7.97
2018-04-01T02:36:20.648Z,7.87
2018-04-01T02:38:48.443Z,8.08
2018-04-01T02:41:16.264Z,8.80
2018-04-01T02:43:44.065Z,8.03
2018-04-01T02:46:11.906Z,9.07
2018-04-01T02:48:39.716Z,8.25
2018-04-01T02:51:07.546Z,7.97
2018-04-01T02:53:35.345Z,8.30
2018-04-01T02:56:03.168Z,8.83
2018-04-01T02:58:30.983Z,10.45
2018-04-01T03:00:58.816Z,11.15
2018-04-01T03:03:26.634Z,11.17
2018-04-01T03:05:54.464Z,11.80
2018-04-01T03:08:22.288Z,11.42
2018-04-01T03:10:50.119Z,12.77
2018-04-01T03:13:17.924Z,11.97
2018-04-01T03:15:45.720Z,11.77
2018-04-01T03:18:13.544Z,11.00
2018-04-01T03:20:41.346Z,10.48
2018-04-01T03:23:09.165Z,11.57
2018-04-01T03:25:36.960Z,10.32
2018-04-01T03:28:04.783Z,11.22
2018-04-01T03:30:32.593Z,10.02
2018-04-01T03:33:00.415Z,10.95
2018-04-01T03:35:28.228Z,10.75
2018-04-01T03:37:56.073Z,11.25
2018-04-01T03:40:23.876Z,11.50
2018-04-01T03:42:51.668Z,10.48
2018-04-01T03:45:19.500Z,10.87
2018-04-01T03:47:47.308Z,10.95
2018-04-01T03:50:15.129Z,10.80
2018-04-01T03:52:42.935Z,10.78
2018-04-01T03:55:10.758Z,11.00
2018-04-01T03:57:38.564Z,10.40
2018-04-01T04:00:06.389Z,11.73
2018-04-01T04:02:34.200Z,11.98
2018-04-01T04:05:02.017Z,11.58
2018-04-01T04:07:29.056Z,11.05
2018-04-01T04:09:56.880Z,11.13
2018-04-01T04:12:24.689Z,11.87
2018-04-01T04:14:52.501Z,9.83
2018-04-01T04:17:20.326Z,11.67
2018-04-01T04:19:48.127Z,11.47
2018-04-01T04:22:15.962Z,10.78
2018-04-01T04:24:43.017Z,11.50
2018-04-01T04:27:10.847Z,10.97
2018-04-01T04:29:38.655Z,10.15
2018-04-01T04:32:06.475Z,9.97
2018-04-01T04:34:34.280Z,8.85
2018-04-01T04:37:02.114Z,8.15
2018-04-01T04:39:29.916Z,7.60
2018-04-01T04:41:57.768Z,7.70
2018-04-01T04:44:25.569Z,8.12
2018-04-01T04:46:53.850Z,8.08
2018-04-01T04:49:21.661Z,8.58
2018-04-01T04:51:49.476Z,7.50
2018-04-01T04:54:17.281Z,8.22
2018-04-01T04:56:45.109Z,7.95
2018-04-01T04:59:12.925Z,7.55
2018-04-01T05:01:40.744Z,7.98
2018-04-01T05:04:08.548Z,8.18
2018-04-01T05:06:36.369Z,8.55
2018-04-01T05:09:03.632Z,7.48
2018-04-01T05:11:31.460Z,8.43
2018-04-01T05:13:59.276Z,8.80
2018-04-01T05:16:27.100Z,8.67
2018-04-01T05:18:54.909Z,8.20
2018-04-01T05:21:22.753Z,8.80
2018-04-01T05:23:50.566Z,9.75
2018-04-01T05:26:18.392Z,9.58
2018-04-01T05:28:46.197Z,9.70
2018-04-01T05:31:14.001Z,10.40
2018-04-01T05:33:41.830Z,11.28
2018-04-01T05:36:09.629Z,10.62
2018-04-01T05:38:37.465Z,10.42
2018-04-01T05:41:05.274Z,12.33
2018-04-01T05:43:33.100Z,10.97
2018-04-01T05:46:00.908Z,12.18
2018-04-01T05:48:28.746Z,10.85
2018-04-01T05:50:56.944Z,11.30
2018-04-01T05:53:24.804Z,12.25
2018-04-01T05:55:52.632Z,11.88
2018-04-01T05:58:20.472Z,12.12
2018-04-01T06:00:48.284Z,12.80
2018-04-01T06:03:16.119Z,14.40
2018-04-01T06:05:43.926Z,13.28
2018-04-01T06:08:10.980Z,13.17
2018-04-01T06:10:38.792Z,12.93
2018-04-01T06:13:06.616Z,12.40
2018-04-01T06:15:34.420Z,11.58
2018-04-01T06:18:02.267Z,12.18
2018-04-01T06:20:30.077Z,13.75
2018-04-01T06:22:57.135Z,11.85
2018-04-01T06:25:24.945Z,12.70
2018-04-01T06:27:52.823Z,11.82
2018-04-01T06:30:20.621Z,12.60
2018-04-01T06:32:48.452Z,11.82
2018-04-01T06:35:16.262Z,21.52
2018-04-01T06:37:44.099Z,14.05
2018-04-01T06:40:11.908Z,15.03
2018-04-01T06:42:39.759Z,30.17
2018-04-01T06:45:07.565Z,12.50
2018-04-01T06:47:35.391Z,11.63
2018-04-01T06:50:03.197Z,13.80
2018-04-01T06:52:31.028Z,14.78
2018-04-01T06:54:58.828Z,37.08
2018-04-01T06:57:26.666Z,16.15
2018-04-01T06:59:54.481Z,15.38
2018-04-01T07:02:22.322Z,19.13
2018-04-01T07:04:50.130Z,5.53
2018-04-01T07:07:17.971Z,6.33
2018-04-01T07:09:45.772Z,6.30
2018-04-01T07:12:13.582Z,5.08
2018-04-01T07:14:41.421Z,5.65
2018-04-01T07:17:09.228Z,5.22
2018-04-01T07:19:37.061Z,6.62
2018-04-01T07:22:04.877Z,5.82
2018-04-01T07:24:32.708Z,6.35
2018-04-01T07:27:00.510Z,6.78
2018-04-01T07:29:28.332Z,6.90
2018-04-01T07:31:56.132Z,7.27
2018-04-01T07:34:23.193Z,7.08
2018-04-01T07:36:51.012Z,8.48
2018-04-01T07:39:18.840Z,7.75
2018-04-01T07:41:46.648Z,7.18
2018-04-01T07:44:14.474Z,7.33
2018-04-01T07:46:42.276Z,7.92
2018-04-01T07:49:10.437Z,6.33
2018-04-01T07:51:37.469Z,7.38
2018-04-01T07:54:05.295Z,5.70
2018-04-01T07:56:33.096Z,5.52
2018-04-01T07:59:00.911Z,4.72
2018-04-01T08:01:28.712Z,5.08
2018-04-01T08:03:56.532Z,5.00
2018-04-01T08:06:24.340Z,4.85
2018-04-01T08:08:52.156Z,4.90
2018-04-01T08:11:19.976Z,6.18
2018-04-01T08:13:47.803Z,5.40
2018-04-01T08:16:14.843Z,5.38
2018-04-01T08:18:42.672Z,5.83
2018-04-01T08:21:10.478Z,6.45
2018-04-01T08:23:38.319Z,6.15
2018-04-01T08:26:06.128Z,7.68
2018-04-01T08:28:33.972Z,7.47
2018-04-01T08:31:01.782Z,6.37
2018-04-01T08:33:29.605Z,7.20
2018-04-01T08:35:56.645Z,6.23
2018-04-01T08:38:24.476Z,5.17
2018-04-01T08:40:52.280Z,6.07
2018-04-01T08:43:19.341Z,5.63
2018-04-01T08:45:47.149Z,5.75
2018-04-01T08:48:14.962Z,6.03
2018-04-01T08:50:42.794Z,6.15
2018-04-01T08:53:10.668Z,6.47
2018-04-01T08:55:38.453Z,6.84
2018-04-01T08:58:06.265Z,6.07
2018-04-01T09:00:34.089Z,6.50
2018-04-01T09:03:01.898Z,8.68
2018-04-01T09:05:29.716Z,8.06
2018-04-01T09:07:57.541Z,8.38
2018-04-01T09:10:25.401Z,7.60
2018-04-01T09:12:53.212Z,8.22
2018-04-01T09:15:21.037Z,8.18
2018-04-01T09:17:48.076Z,8.43
2018-04-01T09:20:15.907Z,9.36
2018-04-01T09:22:43.730Z,8.76
2018-04-01T09:25:11.557Z,8.03
2018-04-01T09:27:39.363Z,7.56
2018-04-01T09:30:07.187Z,8.20
2018-04-01T09:32:34.997Z,9.20
2018-04-01T09:35:02.829Z,8.30
2018-04-01T09:37:30.656Z,7.82
2018-04-01T09:39:58.485Z,9.28
2018-04-01T09:42:26.285Z,8.64
2018-04-01T09:44:54.104Z,8.58
2018-04-01T09:47:21.921Z,8.14
2018-04-01T09:49:49.747Z,8.42
2018-04-01T09:52:17.548Z,8.80
2018-04-01T09:54:45.375Z,9.88
2018-04-01T09:57:12.412Z,9.40
2018-04-01T09:59:40.233Z,8.78
2018-04-01T10:02:08.544Z,8.44
2018-04-01T10:04:36.856Z,9.18
2018-04-01T10:07:05.148Z,8.96
2018-04-01T10:09:33.463Z,8.80
2018-04-01T10:12:01.766Z,8.06
2018-04-01T10:14:30.080Z,8.62
2018-04-01T10:16:57.620Z,10.57
2018-04-01T10:19:25.937Z,14.94
2018-04-01T10:21:54.228Z,10.06
2018-04-01T10:24:22.544Z,7.24
2018-04-01T10:26:50.068Z,7.12
2018-04-01T10:29:18.368Z,26.84
2018-04-01T10:31:46.684Z,7.82
2018-04-01T10:34:14.988Z,8.06
2018-04-01T10:36:43.328Z,52.58
2018-04-01T10:39:11.624Z,10.68
2018-04-01T10:41:39.976Z,8.32
2018-04-01T10:44:08.276Z,25.64
2018-04-01T10:46:36.592Z,13.16
2018-04-01T10:49:05.728Z,17.56
2018-04-01T10:51:34.064Z,18.70
2018-04-01T10:54:01.878Z,8.98
2018-04-01T10:56:29.720Z,7.95
2018-04-01T10:58:57.536Z,27.96
2018-04-01T11:01:25.377Z,23.55
2018-04-01T11:03:53.194Z,10.10
2018-04-01T11:06:21.040Z,27.12
2018-04-01T11:08:48.853Z,8.53
2018-04-01T11:11:16.689Z,8.43
2018-04-01T11:13:44.502Z,7.74
2018-04-01T11:16:12.336Z,7.24
2018-04-01T11:18:40.170Z,8.18
2018-04-01T11:21:07.996Z,7.64
2018-04-01T11:23:35.826Z,8.24
2018-04-01T11:26:03.728Z,9.00
2018-04-01T11:28:31.517Z,8.90
2018-04-01T11:30:59.373Z,8.90
2018-04-01T11:33:27.197Z,11.20
2018-04-01T11:35:55.976Z,9.28
2018-04-01T11:38:23.126Z,10.88
2018-04-01T11:40:50.958Z,10.30
2018-04-01T11:43:19.621Z,10.94
2018-04-01T11:45:47.468Z,10.72
2018-04-01T11:48:15.276Z,11.18
2018-04-01T11:50:43.116Z,10.28
2018-04-01T11:53:10.930Z,11.10
2018-04-01T11:55:38.764Z,10.24
2018-04-01T11:58:06.564Z,11.12
2018-04-01T12:00:34.392Z,10.36
2018-04-01T12:03:02.206Z,9.38
2018-04-01T12:05:30.034Z,8.66
2018-04-01T12:07:57.860Z,8.48
2018-04-01T12:10:25.677Z,10.16
2018-04-01T12:12:53.499Z,13.80
2018-04-01T12:15:21.292Z,9.22
2018-04-01T12:17:49.120Z,8.94
2018-04-01T12:20:16.920Z,9.48
2018-04-01T12:22:44.764Z,11.44
2018-04-01T12:25:11.804Z,9.82
2018-04-01T12:27:39.648Z,12.46
2018-04-01T12:30:07.469Z,10.44
2018-04-01T12:32:35.288Z,11.06
2018-04-01T12:35:03.100Z,10.58
2018-04-01T12:37:30.941Z,11.24
2018-04-01T12:39:58.744Z,11.96
2018-04-01T12:42:26.588Z,11.04
2018-04-01T12:44:54.396Z,12.44
2018-04-01T12:47:22.224Z,11.76
2018-04-01T12:49:50.030Z,11.88
2018-04-01T12:52:17.866Z,11.60
2018-04-01T12:54:45.688Z,11.24
2018-04-01T12:57:13.529Z,12.96
2018-04-01T12:59:41.341Z,13.22
2018-04-01T13:02:09.169Z,13.78
2018-04-01T13:04:36.976Z,14.60
2018-04-01T13:07:04.808Z,15.52
2018-04-01T13:09:32.613Z,14.52
2018-04-01T13:12:00.440Z,14.96
2018-04-01T13:14:28.256Z,15.38
2018-04-01T13:16:56.084Z,16.70
2018-04-01T13:19:23.926Z,16.62
2018-04-01T13:21:51.736Z,17.54
2018-04-01T13:24:19.541Z,18.50
2018-04-01T13:26:47.370Z,17.94
2018-04-01T13:29:15.173Z,18.30
2018-04-01T13:31:43.003Z,18.08
2018-04-01T13:34:10.809Z,18.14
2018-04-01T13:36:37.878Z,17.04
2018-04-01T13:39:05.698Z,16.16
2018-04-01T13:41:33.503Z,17.90
2018-04-01T13:44:01.324Z,17.22
2018-04-01T13:46:30.068Z,18.00
2018-04-01T13:48:57.153Z,18.76
2018-04-01T13:51:24.961Z,19.04
2018-04-01T13:53:52.992Z,19.24
2018-04-01T13:56:20.800Z,17.88
2018-04-01T13:58:48.673Z,18.38
2018-04-01T14:01:16.569Z,18.20
2018-04-01T14:03:44.405Z,19.68
2018-04-01T14:06:12.301Z,18.04
2018-04-01T14:08:39.373Z,18.94
2018-04-01T14:11:07.181Z,19.88
2018-04-01T14:13:35.022Z,19.78
2018-04-01T14:16:02.059Z,20.50
2018-04-01T14:18:29.121Z,26.72
2018-04-01T14:20:56.928Z,19.42
2018-04-01T14:23:24.757Z,19.72
2018-04-01T14:25:52.559Z,19.96
2018-04-01T14:28:20.388Z,19.34
2018-04-01T14:30:48.192Z,20.64
2018-04-01T14:33:16.078Z,21.62
2018-04-01T14:35:43.836Z,20.90
2018-04-01T14:38:11.668Z,22.58
2018-04-01T14:40:39.485Z,21.26
2018-04-01T14:43:07.317Z,21.50
2018-04-01T14:45:35.116Z,21.14
2018-04-01T14:48:02.948Z,22.22
2018-04-01T14:50:30.748Z,19.98
2018-04-01T14:52:58.576Z,21.16
2018-04-01T14:55:25.617Z,22.44
2018-04-01T14:57:52.671Z,23.38
2018-04-01T15:00:20.488Z,24.36
2018-04-01T15:02:47.608Z,23.02
2018-04-01T15:05:15.376Z,24.67
2018-04-01T15:07:43.209Z,26.00
2018-04-01T15:10:11.024Z,24.44
2018-04-01T15:12:38.859Z,24.60
2018-04-01T15:15:06.769Z,27.10
2018-04-01T15:17:33.813Z,28.05
2018-04-01T15:20:01.659Z,29.75
2018-04-01T15:22:29.464Z,28.72
2018-04-01T15:24:57.295Z,29.82
2018-04-01T15:27:25.109Z,28.48
2018-04-01T15:29:52.949Z,31.65
2018-04-01T15:32:20.769Z,29.40
2018-04-01T15:34:48.595Z,30.16
2018-04-01T15:37:16.406Z,29.88
2018-04-01T15:39:44.260Z,30.45
2018-04-01T15:42:12.068Z,31.06
2018-04-01T15:44:40.272Z,28.86
2018-04-01T15:47:08.081Z,31.10
2018-04-01T15:49:35.910Z,29.84
2018-04-01T15:52:03.787Z,29.28
2018-04-01T15:54:31.613Z,28.84
2018-04-01T15:56:59.502Z,30.98
2018-04-01T15:59:27.440Z,29.84
2018-04-01T16:01:55.244Z,30.10
2018-04-01T16:04:23.073Z,31.78
2018-04-01T16:06:50.884Z,34.28
2018-04-01T16:09:18.740Z,31.64
2018-04-01T16:11:46.604Z,34.88
2018-04-01T16:14:14.460Z,31.38
2018-04-01T16:16:42.263Z,33.76
2018-04-01T16:19:10.153Z,36.95
2018-04-01T16:21:37.937Z,34.27
2018-04-01T16:24:05.868Z,35.18
2018-04-01T16:26:34.548Z,33.75
2018-04-01T16:29:02.382Z,32.45
2018-04-01T16:31:30.209Z,39.04
2018-04-01T16:33:58.036Z,37.67
2018-04-01T16:36:25.914Z,35.78
2018-04-01T16:38:53.752Z,35.90
2018-04-01T16:41:21.563Z,36.86
2018-04-01T16:43:49.404Z,36.37
2018-04-01T16:46:17.262Z,36.58
2018-04-01T16:48:44.288Z,38.24
2018-04-01T16:51:12.116Z,37.23
2018-04-01T16:53:39.956Z,35.55
2018-04-01T16:56:07.784Z,39.28
2018-04-01T16:58:34.838Z,36.00
2018-04-01T17:01:02.673Z,37.18
2018-04-01T17:03:30.492Z,36.33
2018-04-01T17:05:58.328Z,36.82
2018-04-01T17:08:26.225Z,36.75
2018-04-01T17:10:54.053Z,38.42
2018-04-01T17:13:21.893Z,35.73
2018-04-01T17:15:49.832Z,42.12
2018-04-01T17:18:17.645Z,37.28
2018-04-01T17:20:45.472Z,39.07
2018-04-01T17:23:13.282Z,38.60
2018-04-01T17:25:41.134Z,36.93
2018-04-01T17:28:08.948Z,39.03
2018-04-01T17:30:36.782Z,38.33
2018-04-01T17:33:04.668Z,41.15
2018-04-01T17:35:32.510Z,38.62
2018-04-01T17:37:59.553Z,38.70
2018-04-01T17:40:27.407Z,41.03
2018-04-01T17:42:55.244Z,42.15
2018-04-01T17:45:23.112Z,42.08
2018-04-01T17:47:51.011Z,41.18
2018-04-01T17:50:18.881Z,40.42
2018-04-01T17:52:46.689Z,47.85
2018-04-01T17:55:14.521Z,39.38
2018-04-01T17:57:42.337Z,42.42
2018-04-01T18:00:10.228Z,39.45
2018-04-01T18:02:38.061Z,38.87
2018-04-01T18:05:05.896Z,40.17
2018-04-01T18:07:32.950Z,41.70
2018-04-01T18:10:00.792Z,39.52
2018-04-01T18:12:28.613Z,39.57
2018-04-01T18:14:56.441Z,39.25
2018-04-01T18:17:24.248Z,39.37
2018-04-01T18:19:52.108Z,42.45
2018-04-01T18:22:20.076Z,36.37
2018-04-01T18:24:47.948Z,40.65
2018-04-01T18:27:15.777Z,38.52
2018-04-01T18:29:43.583Z,36.08
2018-04-01T18:32:11.420Z,37.30
2018-04-01T18:34:39.466Z,36.27
2018-04-01T18:37:07.917Z,34.45
2018-04-01T18:39:35.130Z,36.03
2018-04-01T18:42:03.079Z,34.18
2018-04-01T18:44:30.936Z,35.17
2018-04-01T18:46:58.764Z,34.45
2018-04-01T18:49:26.582Z,34.23
2018-04-01T18:51:54.413Z,32.93
2018-04-01T18:54:21.449Z,32.98
2018-04-01T18:56:49.290Z,31.95
2018-04-01T18:59:17.096Z,32.08
2018-04-01T19:01:44.916Z,31.95
2018-04-01T19:04:12.734Z,31.85
2018-04-01T19:06:40.562Z,33.40
2018-04-01T19:09:08.373Z,31.92
2018-04-01T19:11:36.248Z,32.75
2018-04-01T19:14:04.053Z,34.30
2018-04-01T19:16:32.432Z,33.87
2018-04-01T19:19:00.762Z,34.32
2018-04-01T19:21:29.188Z,34.63
2018-04-01T19:23:57.484Z,34.15
2018-04-01T19:26:25.804Z,33.88
2018-04-01T19:28:53.349Z,32.37
2018-04-01T19:31:21.681Z,31.40
2018-04-01T19:33:50.015Z,35.08
2018-04-01T19:36:18.369Z,34.13
2018-04-01T19:38:46.678Z,32.60
2018-04-01T19:41:15.120Z,34.00
2018-04-01T19:43:43.429Z,31.50
2018-04-01T19:46:11.753Z,31.30
2018-04-01T19:48:40.054Z,35.68
2018-04-01T19:51:08.376Z,31.58
2018-04-01T19:53:36.677Z,32.48
2018-04-01T19:56:04.992Z,33.02
2018-04-01T19:58:33.300Z,31.10
2018-04-01T20:01:01.624Z,32.28
2018-04-01T20:03:29.925Z,32.18
2018-04-01T20:05:58.264Z,31.37
2018-04-01T20:08:26.564Z,33.22
2018-04-01T20:10:54.892Z,30.57
2018-04-01T20:13:23.186Z,30.83
2018-04-01T20:15:51.481Z,31.68
2018-04-01T20:18:19.792Z,32.93
2018-04-01T20:20:48.137Z,40.43
2018-04-01T20:23:16.457Z,31.83
2018-04-01T20:25:44.753Z,31.87
2018-04-01T20:28:13.066Z,30.65
2018-04-01T20:30:41.364Z,33.28
2018-04-01T20:33:09.692Z,32.47
2018-04-01T20:35:37.994Z,31.95
2018-04-01T20:38:06.315Z,32.27
2018-04-01T20:40:34.613Z,32.02
2018-04-01T20:43:02.937Z,28.77
2018-04-01T20:45:31.233Z,29.85
2018-04-01T20:47:59.557Z,29.23
2018-04-01T20:50:27.862Z,31.22
2018-04-01T20:52:56.185Z,27.37
2018-04-01T20:55:24.491Z,27.40
2018-04-01T20:57:52.808Z,30.67
2018-04-01T21:00:21.102Z,29.50
2018-04-01T21:02:49.420Z,30.22
2018-04-01T21:05:17.721Z,28.63
2018-04-01T21:07:46.044Z,28.77
2018-04-01T21:10:14.336Z,28.72
2018-04-01T21:12:42.664Z,29.30
2018-04-01T21:15:10.965Z,29.68
2018-04-01T21:17:39.298Z,29.87
2018-04-01T21:20:07.596Z,28.67
2018-04-01T21:22:35.912Z,28.90
2018-04-01T21:25:04.208Z,27.33
2018-04-01T21:27:31.777Z,27.72
2018-04-01T21:30:00.077Z,26.23
2018-04-01T21:32:28.405Z,26.28
2018-04-01T21:34:56.708Z,27.18
2018-04-01T21:37:25.045Z,25.37
2018-04-01T21:39:53.340Z,24.98
2018-04-01T21:42:21.637Z,28.90
2018-04-01T21:44:49.201Z,26.70
2018-04-01T21:47:17.512Z,26.88
2018-04-01T21:49:45.836Z,28.50
2018-04-01T21:52:14.136Z,25.48
2018-04-01T21:54:42.458Z,27.20
2018-04-01T21:57:11.008Z,26.33
2018-04-01T21:59:39.351Z,24.52
2018-04-01T22:02:07.653Z,23.88
2018-04-01T22:04:35.972Z,25.07
2018-04-01T22:07:04.284Z,24.17
2018-04-01T22:09:32.608Z,26.78
2018-04-01T22:12:00.917Z,26.07
2018-04-01T22:14:29.237Z,24.88
2018-04-01T22:16:57.533Z,25.48
2018-04-01T22:19:25.857Z,26.77
2018-04-01T22:21:54.157Z,23.70
2018-04-01T22:24:22.472Z,23.47
2018-04-01T22:26:50.777Z,21.83
2018-04-01T22:29:19.101Z,21.73
2018-04-01T22:31:47.406Z,23.85
2018-04-01T22:34:15.724Z,24.43
2018-04-01T22:36:43.260Z,24.78
2018-04-01T22:39:11.582Z,25.78
2018-04-01T22:41:39.883Z,25.18
2018-04-01T22:44:08.208Z,30.05
2018-04-01T22:46:36.535Z,26.17
2018-04-01T22:49:05.424Z,23.83
2018-04-01T22:51:33.729Z,23.25
2018-04-01T22:54:02.056Z,22.70
2018-04-01T22:56:30.373Z,22.97
2018-04-01T22:58:58.692Z,20.68
2018-04-01T23:01:26.996Z,22.45
2018-04-01T23:03:55.315Z,20.40
2018-04-01T23:06:23.617Z,21.77
2018-04-01T23:08:51.936Z,21.68
2018-04-01T23:11:20.233Z,23.62
2018-04-01T23:13:48.561Z,26.80
2018-04-01T23:16:16.864Z,26.32
2018-04-01T23:18:45.157Z,25.98
2018-04-01T23:21:13.468Z,25.43
2018-04-01T23:23:41.766Z,25.65
2018-04-01T23:26:10.084Z,25.12
2018-04-01T23:28:38.392Z,26.05
2018-04-01T23:31:06.709Z,24.08
2018-04-01T23:33:35.006Z,25.28
2018-04-01T23:36:03.320Z,25.65
2018-04-01T23:38:31.613Z,26.25
2018-04-01T23:40:59.925Z,24.55
2018-04-01T23:43:28.221Z,23.25
2018-04-01T23:45:56.541Z,23.43
2018-04-01T23:48:24.844Z,22.57
2018-04-01T23:50:53.156Z,21.63
2018-04-01T23:53:21.456Z,21.88
2018-04-01T23:55:49.778Z,23.53
2018-04-01T23:58:18.075Z,23.47
